Franklin, Tennessee
Current Conditions -  °F | °C
As of 12:53 PM on Tuesday 27 Jan 2015 (Local Time) from KBNA Reporting Station
Overcast Overcast  
Wind Chill: 32°   Ceiling: 1900
Heat Index: 39°   Visibility: 10mi
Dew Point: 31°   Wind: 10mph
Humidity: 73%   Direction: 350°N
Pressure: 30.09"   Gusts: NA
Location:  35.92°N, 86.87°W
Report Text: KBNA 271853Z 35009KT 10SM OVC019 04/M01 A3009 RMK AO2 SLP191 T00391006
Loading
Personal Weather Stations






























Interactive Weather Map New forecast layout! Learn more

10-Day Weather Forecast

Advertisements
Track Severe Weather on mobile